createdAt,value
2022-12-15T00:01:55.084Z,-3.25
2022-12-15T00:31:55.125Z,-3.63
2022-12-15T01:01:55.360Z,-3.06
2022-12-15T01:31:55.160Z,-3.38
2022-12-15T02:01:55.267Z,-3.56
2022-12-15T02:31:55.228Z,-3.69
2022-12-15T03:01:55.285Z,-3.81
2022-12-15T03:31:55.209Z,-3.5
2022-12-15T04:01:55.244Z,-3.44
2022-12-15T04:31:55.144Z,-3.44
2022-12-15T05:01:55.233Z,-3.31
2022-12-15T05:31:55.142Z,-3.56
2022-12-15T06:01:55.239Z,-3.56
2022-12-15T06:31:55.288Z,-3.5
2022-12-15T07:01:55.335Z,-3.88
2022-12-15T07:31:55.185Z,-4.19
2022-12-15T08:01:55.405Z,-4.75
2022-12-15T08:31:55.240Z,-4.44
2022-12-15T09:01:55.296Z,-4.5
2022-12-15T09:31:55.206Z,-3.88
2022-12-15T10:01:55.197Z,-2.88
2022-12-15T10:31:55.216Z,-2.38
2022-12-15T11:01:55.450Z,-1.88
2022-12-15T11:31:55.241Z,-1.63
2022-12-15T12:02:00.907Z,-1.56
2022-12-15T12:31:59.080Z,-1.75
2022-12-15T13:01:55.531Z,-1.38
2022-12-15T13:31:55.392Z,-1.69
2022-12-15T14:01:55.312Z,-1.25
2022-12-15T14:31:55.317Z,-1.75
2022-12-15T15:01:58.996Z,-2.06
2022-12-15T15:31:55.257Z,-2.63
2022-12-15T16:01:55.456Z,-2.94
2022-12-15T16:31:55.388Z,-2.56
2022-12-15T17:01:55.369Z,-2.88
2022-12-15T17:31:55.331Z,-3.13
2022-12-15T18:01:55.354Z,-2.75
2022-12-15T18:31:55.352Z,-2.94
2022-12-15T19:01:55.358Z,-2.31
2022-12-15T19:31:55.349Z,-2.44
2022-12-15T20:01:55.534Z,-2.5
2022-12-15T20:31:55.392Z,-2.13
2022-12-15T21:01:55.526Z,-1.81
2022-12-15T21:31:55.312Z,-1.25
2022-12-15T22:01:55.499Z,-1.44
2022-12-15T22:31:55.323Z,-1.69
2022-12-15T23:01:55.424Z,-1.38
2022-12-15T23:31:55.329Z,-1.44
